createdAt,value
2022-08-18T00:01:55.418Z,100498.44
2022-08-18T00:04:35.467Z,100498.53
2022-08-18T00:07:02.810Z,100499.25
2022-08-18T00:09:32.425Z,100508.06
2022-08-18T00:12:03.098Z,100513.97
2022-08-18T00:14:30.125Z,100518.94
2022-08-18T00:16:56.923Z,100511.22
2022-08-18T00:19:24.759Z,100512.91
2022-08-18T00:22:16.057Z,100512.81
2022-08-18T00:24:47.449Z,100512.00
2022-08-18T00:27:17.208Z,100514.59
2022-08-18T00:29:43.754Z,100510.41
2022-08-18T00:32:15.601Z,100514.59
2022-08-18T00:34:42.211Z,100515.56
2022-08-18T00:37:08.988Z,100517.78
2022-08-18T00:39:37.062Z,100510.91
2022-08-18T00:42:43.839Z,100513.22
2022-08-18T00:45:14.340Z,100523.03
2022-08-18T00:47:42.478Z,100507.31
2022-08-18T00:50:15.018Z,100526.53
2022-08-18T00:52:46.464Z,100526.41
2022-08-18T00:55:13.023Z,100526.09
2022-08-18T00:57:40.410Z,100521.94
2022-08-18T01:00:11.676Z,100510.97
2022-08-18T01:02:42.723Z,100516.41
2022-08-18T01:05:14.386Z,100523.28
2022-08-18T01:07:47.907Z,100516.31
2022-08-18T01:10:17.434Z,100514.41
2022-08-18T01:12:49.130Z,100514.50
2022-08-18T01:15:27.808Z,100515.25
2022-08-18T01:18:21.519Z,100514.47
2022-08-18T01:21:14.445Z,100517.97
2022-08-18T01:23:41.223Z,100518.06
2022-08-18T01:26:09.280Z,100508.44
2022-08-18T01:28:39.731Z,100510.13
2022-08-18T01:31:09.099Z,100503.16
2022-08-18T01:33:38.069Z,100513.47
2022-08-18T01:36:17.813Z,100503.84
2022-08-18T01:38:45.977Z,100504.41
2022-08-18T01:41:27.054Z,100502.81
2022-08-18T01:43:58.559Z,100505.06
2022-08-18T01:46:25.803Z,100507.06
2022-08-18T01:48:52.490Z,100510.59
2022-08-18T01:51:20.513Z,100509.59
2022-08-18T01:54:05.432Z,100500.94
2022-08-18T01:56:31.957Z,100521.13
2022-08-18T01:58:58.447Z,100515.84
2022-08-18T02:01:33.023Z,100525.41
2022-08-18T02:04:33.194Z,100521.03
2022-08-18T02:06:54.447Z,100531.09
2022-08-18T02:09:24.532Z,100529.34
2022-08-18T02:11:53.113Z,100535.34
2022-08-18T02:14:25.012Z,100530.91
2022-08-18T02:16:53.382Z,100538.09
2022-08-18T02:19:28.140Z,100535.50
2022-08-18T02:21:54.663Z,100542.53
2022-08-18T02:24:21.200Z,100532.41
2022-08-18T02:26:47.619Z,100524.81
2022-08-18T02:29:14.230Z,100522.38
2022-08-18T02:31:40.839Z,100526.91
2022-08-18T02:34:07.362Z,100529.34
2022-08-18T02:36:33.895Z,100517.78
2022-08-18T02:39:00.436Z,100525.34
2022-08-18T02:41:29.782Z,100519.47
2022-08-18T02:43:57.523Z,100507.38
2022-08-18T02:46:24.383Z,100522.50
2022-08-18T02:48:57.084Z,100518.09
2022-08-18T02:51:25.918Z,100515.84
2022-08-18T02:53:54.094Z,100513.53
2022-08-18T02:56:40.078Z,100509.53
2022-08-18T02:59:11.664Z,100513.13
2022-08-18T03:01:41.946Z,100513.34
2022-08-18T03:04:11.631Z,100514.19
2022-08-18T03:06:39.464Z,100507.25
2022-08-18T03:09:08.178Z,100499.16
2022-08-18T03:11:35.840Z,100515.44
2022-08-18T03:14:03.086Z,100510.91
2022-08-18T03:16:32.747Z,100514.69
2022-08-18T03:19:01.817Z,100511.91
2022-08-18T03:21:31.045Z,100520.84
2022-08-18T03:24:01.572Z,100514.56
2022-08-18T03:26:31.018Z,100519.47
2022-08-18T03:28:59.983Z,100530.69
2022-08-18T03:31:30.040Z,100539.09
2022-08-18T03:33:59.394Z,100531.22
2022-08-18T03:36:29.316Z,100536.50
2022-08-18T03:38:55.933Z,100531.28
2022-08-18T03:41:58.798Z,100524.19
2022-08-18T03:44:12.697Z,100522.63
2022-08-18T03:46:42.186Z,100520.94
2022-08-18T03:49:09.467Z,100530.66
2022-08-18T03:51:36.845Z,100531.91
2022-08-18T03:54:04.996Z,100520.00
2022-08-18T03:56:35.548Z,100529.25
2022-08-18T03:59:06.041Z,100540.59
2022-08-18T04:01:39.343Z,100539.91
2022-08-18T04:04:08.122Z,100538.03
2022-08-18T04:06:42.342Z,100541.31
2022-08-18T04:09:13.706Z,100553.31
2022-08-18T04:11:44.527Z,100556.78
2022-08-18T04:14:20.706Z,100557.47
2022-08-18T04:16:48.942Z,100546.47
2022-08-18T04:19:27.367Z,100550.97
2022-08-18T04:21:55.962Z,100554.41
2022-08-18T04:24:22.811Z,100550.81
2022-08-18T04:26:50.231Z,100549.44
2022-08-18T04:29:21.297Z,100551.94
2022-08-18T04:31:50.190Z,100564.09
2022-08-18T04:34:17.950Z,100563.13
2022-08-18T04:36:44.532Z,100560.63
2022-08-18T04:39:12.867Z,100568.00
2022-08-18T04:41:42.843Z,100567.75
2022-08-18T04:44:11.342Z,100556.31
2022-08-18T04:46:42.109Z,100554.00
2022-08-18T04:49:10.573Z,100548.44
2022-08-18T04:52:22.611Z,100550.91
2022-08-18T04:54:29.129Z,100544.72
2022-08-18T04:56:55.770Z,100550.50
2022-08-18T04:59:22.703Z,100548.44
2022-08-18T05:01:49.165Z,100550.91
2022-08-18T05:04:17.576Z,100560.25
2022-08-18T05:06:45.284Z,100551.50
2022-08-18T05:09:16.518Z,100539.06
2022-08-18T05:11:47.563Z,100559.34
2022-08-18T05:14:14.720Z,100564.69
2022-08-18T05:16:48.512Z,100571.63
2022-08-18T05:19:21.962Z,100569.16
2022-08-18T05:21:51.831Z,100560.59
2022-08-18T05:24:21.405Z,100569.28
2022-08-18T05:26:49.001Z,100563.22
2022-08-18T05:29:18.711Z,100569.91
2022-08-18T05:31:47.186Z,100577.69
2022-08-18T05:34:13.970Z,100578.41
2022-08-18T05:36:49.235Z,100577.59
2022-08-18T05:39:23.975Z,100570.56
2022-08-18T05:42:28.746Z,100574.63
2022-08-18T05:44:56.377Z,100570.50
2022-08-18T05:47:24.616Z,100576.66
2022-08-18T05:49:52.822Z,100571.38
2022-08-18T05:52:25.851Z,100576.16
2022-08-18T05:55:14.965Z,100578.88
2022-08-18T05:57:55.917Z,100575.50
2022-08-18T06:00:24.154Z,100583.56
2022-08-18T06:03:15.729Z,100589.75
2022-08-18T06:05:52.739Z,100585.56
2022-08-18T06:08:24.017Z,100590.16
2022-08-18T06:11:22.410Z,100579.91
2022-08-18T06:14:03.072Z,100584.72
2022-08-18T06:20:14.082Z,100597.94
2022-08-18T06:23:34.737Z,100578.41
2022-08-18T06:26:49.188Z,100599.59
2022-08-18T06:29:36.958Z,100596.59
2022-08-18T06:32:10.219Z,100600.97
2022-08-18T06:34:55.733Z,100601.75
2022-08-18T06:37:32.729Z,100607.84
2022-08-18T06:40:02.639Z,100605.06
2022-08-18T06:42:35.662Z,100611.78
2022-08-18T06:45:13.090Z,100603.22
2022-08-18T06:47:43.028Z,100619.63
2022-08-18T06:50:27.163Z,100617.63
2022-08-18T06:52:58.967Z,100591.03
2022-08-18T06:55:56.696Z,100620.47
2022-08-18T06:58:35.214Z,100623.81
2022-08-18T07:01:17.111Z,100603.06
2022-08-18T07:03:57.403Z,100626.72
2022-08-18T07:06:31.969Z,100620.69
2022-08-18T07:09:20.291Z,100626.88
2022-08-18T07:12:04.938Z,100629.88
2022-08-18T07:14:33.360Z,100630.53
2022-08-18T07:17:17.073Z,100634.00
2022-08-18T07:19:44.388Z,100628.44
2022-08-18T07:22:17.964Z,100635.72
2022-08-18T07:24:49.809Z,100630.22
2022-08-18T07:27:23.729Z,100634.22
2022-08-18T07:30:11.942Z,100633.09
2022-08-18T07:32:51.789Z,100632.63
2022-08-18T07:35:26.572Z,100638.00
2022-08-18T07:41:30.535Z,100638.75
2022-08-18T07:44:13.874Z,100650.69
2022-08-18T07:47:06.924Z,100655.78
2022-08-18T07:49:59.746Z,100640.41
2022-08-18T07:53:08.184Z,100653.06
2022-08-18T07:55:58.294Z,100660.09
2022-08-18T07:58:35.276Z,100657.94
2022-08-18T08:01:45.296Z,100592.00
2022-08-18T08:04:55.029Z,100654.38
2022-08-18T08:07:30.814Z,100650.84
2022-08-18T08:10:22.928Z,100657.25
2022-08-18T08:13:51.725Z,100648.97
2022-08-18T08:16:49.714Z,100645.88
2022-08-18T08:19:58.863Z,100637.84
2022-08-18T08:23:01.046Z,100655.03
2022-08-18T08:29:23.725Z,100662.63
2022-08-18T08:32:17.703Z,100645.28
2022-08-18T08:34:52.567Z,100657.50
2022-08-18T08:37:31.043Z,100664.94
2022-08-18T08:40:15.583Z,100664.78
2022-08-18T08:43:03.047Z,100647.50
2022-08-18T08:45:32.765Z,100636.91
2022-08-18T08:48:09.474Z,100636.69
2022-08-18T08:50:48.767Z,100640.97
2022-08-18T08:53:21.343Z,100655.16
2022-08-18T08:55:53.552Z,100654.09
2022-08-18T08:58:59.389Z,100657.38
2022-08-18T09:01:34.705Z,100670.00
2022-08-18T09:04:10.759Z,100666.94
2022-08-18T09:07:01.628Z,100668.63
2022-08-18T09:09:49.413Z,100672.59
2022-08-18T09:12:34.298Z,100671.22
2022-08-18T09:15:58.149Z,100677.44
2022-08-18T09:18:56.464Z,100669.53
2022-08-18T09:21:46.145Z,100671.75
2022-08-18T09:24:44.903Z,100667.50
2022-08-18T09:27:14.763Z,100662.66
2022-08-18T09:29:53.304Z,100669.38
2022-08-18T09:32:23.887Z,100673.97
2022-08-18T09:35:24.596Z,100679.16
2022-08-18T09:38:40.205Z,100675.78
2022-08-18T09:41:32.897Z,100670.53
2022-08-18T09:44:21.707Z,100662.88
2022-08-18T09:46:56.051Z,100682.91
2022-08-18T09:49:27.218Z,100682.53
2022-08-18T09:52:24.314Z,100688.06
2022-08-18T09:55:28.925Z,100680.78
2022-08-18T09:58:30.989Z,100678.00
2022-08-18T10:01:41.592Z,100676.63
2022-08-18T10:04:14.447Z,100687.78
2022-08-18T10:06:48.360Z,100686.63
2022-08-18T10:09:36.273Z,100685.81
2022-08-18T10:15:14.678Z,100665.81
2022-08-18T10:18:05.669Z,100678.78
2022-08-18T10:20:59.261Z,100683.06
2022-08-18T10:24:02.881Z,100683.13
2022-08-18T10:26:55.367Z,100691.72
2022-08-18T10:29:29.074Z,100689.94
2022-08-18T10:32:01.573Z,100692.09
2022-08-18T10:34:52.140Z,100686.41
2022-08-18T10:37:36.117Z,100687.59
2022-08-18T10:40:16.140Z,100682.63
2022-08-18T10:42:59.237Z,100693.41
2022-08-18T10:45:30.932Z,100684.31
2022-08-18T10:48:16.860Z,100677.69
2022-08-18T10:50:50.201Z,100682.19
2022-08-18T10:56:34.290Z,100682.03
2022-08-18T10:59:28.621Z,100681.00
2022-08-18T11:02:40.220Z,100678.13
2022-08-18T11:05:11.624Z,100678.22
2022-08-18T11:07:44.725Z,100679.19
2022-08-18T11:11:27.641Z,100678.91
2022-08-18T11:14:31.815Z,100676.84
2022-08-18T11:17:16.083Z,100680.75
2022-08-18T11:19:44.947Z,100672.28
2022-08-18T11:22:30.344Z,100672.97
2022-08-18T11:27:49.921Z,100671.69
2022-08-18T11:30:18.750Z,100673.47
2022-08-18T11:32:51.981Z,100677.59
2022-08-18T11:35:27.624Z,100664.75
2022-08-18T11:38:03.793Z,100675.91
2022-08-18T11:43:41.102Z,100662.69
2022-08-18T11:46:27.909Z,100660.16
2022-08-18T11:48:57.264Z,100646.72
2022-08-18T11:51:28.402Z,100656.69
2022-08-18T11:53:59.423Z,100655.63
2022-08-18T11:59:52.898Z,100661.31
2022-08-18T12:02:21.224Z,100645.97
2022-08-18T12:04:54.989Z,100652.84
2022-08-18T12:07:35.062Z,100645.88
2022-08-18T12:10:26.584Z,100628.34
2022-08-18T12:12:57.521Z,100630.97
2022-08-18T12:15:43.686Z,100637.63
2022-08-18T12:18:26.041Z,100639.31
2022-08-18T12:20:59.520Z,100641.03
2022-08-18T12:23:39.144Z,100632.00
2022-08-18T12:29:02.903Z,100638.28
2022-08-18T12:31:42.781Z,100631.97
2022-08-18T12:34:16.000Z,100631.72
2022-08-18T12:36:44.384Z,100628.13
2022-08-18T12:39:10.932Z,100628.53
2022-08-18T12:41:37.724Z,100610.94
2022-08-18T12:44:04.504Z,100604.63
2022-08-18T12:46:40.276Z,100603.41
2022-08-18T12:49:18.933Z,100613.41
2022-08-18T12:51:50.179Z,100600.63
2022-08-18T12:54:17.974Z,100598.47
2022-08-18T12:56:48.229Z,100593.28
2022-08-18T12:59:16.062Z,100597.94
2022-08-18T13:01:44.359Z,100602.09
2022-08-18T13:04:13.821Z,100607.72
2022-08-18T13:07:00.663Z,100607.41
2022-08-18T13:09:42.983Z,100599.84
2022-08-18T13:12:18.874Z,100602.22
2022-08-18T13:14:46.701Z,100615.34
2022-08-18T13:17:30.272Z,100625.41
2022-08-18T13:20:03.606Z,100633.63
2022-08-18T13:22:32.430Z,100626.28
2022-08-18T13:25:05.416Z,100625.88
2022-08-18T13:27:33.562Z,100617.69
2022-08-18T13:30:30.269Z,100613.47
2022-08-18T13:32:59.036Z,100613.78
2022-08-18T13:35:26.601Z,100600.88
2022-08-18T13:37:56.803Z,100596.50
2022-08-18T13:40:23.416Z,100592.53
2022-08-18T13:42:55.916Z,100586.00
2022-08-18T13:45:25.632Z,100593.91
2022-08-18T13:47:52.589Z,100589.56
2022-08-18T13:50:20.886Z,100601.44
2022-08-18T13:53:00.829Z,100597.81
2022-08-18T13:55:28.990Z,100596.69
2022-08-18T13:57:55.941Z,100582.63
2022-08-18T14:00:29.548Z,100575.75
2022-08-18T14:02:58.829Z,100577.81
2022-08-18T14:05:51.031Z,100582.97
2022-08-18T14:08:12.480Z,100583.69
2022-08-18T14:10:50.708Z,100562.13
2022-08-18T14:13:20.997Z,100563.50
2022-08-18T14:15:54.952Z,100573.25
2022-08-18T14:18:35.762Z,100575.22
2022-08-18T14:21:27.672Z,100579.22
2022-08-18T14:24:16.629Z,100568.38
2022-08-18T14:26:50.138Z,100516.38
2022-08-18T14:29:46.471Z,100563.31
2022-08-18T14:32:11.926Z,100537.56
2022-08-18T14:34:51.334Z,100549.75
2022-08-18T14:37:34.307Z,100540.97
2022-08-18T14:40:09.810Z,100515.69
2022-08-18T14:45:35.486Z,100486.03
2022-08-18T14:51:31.458Z,100545.13
2022-08-18T14:54:46.300Z,100537.31
2022-08-18T14:57:24.398Z,100526.56
2022-08-18T14:59:57.712Z,100526.28
2022-08-18T15:02:29.778Z,100539.53
2022-08-18T15:05:03.011Z,100472.31
2022-08-18T15:07:49.023Z,100491.72
2022-08-18T15:10:23.565Z,100534.97
2022-08-18T15:13:16.265Z,100465.44
2022-08-18T15:15:54.417Z,100508.25
2022-08-18T15:18:26.600Z,100480.41
2022-08-18T15:21:35.732Z,100477.59
2022-08-18T15:24:28.082Z,100479.38
2022-08-18T15:27:19.588Z,100486.94
2022-08-18T15:31:49.631Z,100549.81
2022-08-18T15:34:31.305Z,100478.09
2022-08-18T15:37:14.543Z,100494.75
2022-08-18T15:39:56.333Z,100514.75
2022-08-18T15:43:06.415Z,100486.88
2022-08-18T15:45:57.844Z,100544.72
2022-08-18T15:48:31.609Z,100510.63
2022-08-18T15:51:17.034Z,100526.44
2022-08-18T15:54:03.088Z,100493.53
2022-08-18T15:56:36.856Z,100526.28
2022-08-18T15:59:12.734Z,100543.31
2022-08-18T16:01:57.697Z,100533.00
2022-08-18T16:04:34.348Z,100469.13
2022-08-18T16:07:13.627Z,100496.69
2022-08-18T16:10:03.745Z,100518.81
2022-08-18T16:12:48.253Z,100509.25
2022-08-18T16:18:40.428Z,100471.22
2022-08-18T16:21:33.629Z,100498.00
2022-08-18T16:24:38.249Z,100479.56
2022-08-18T16:27:40.941Z,100501.69
2022-08-18T16:30:28.329Z,100559.50
2022-08-18T16:32:58.657Z,100551.25
2022-08-18T16:35:31.747Z,100522.09
2022-08-18T16:38:10.552Z,100472.69
2022-08-18T16:40:38.588Z,100552.78
2022-08-18T16:43:09.106Z,100551.25
2022-08-18T16:45:39.689Z,100539.63
2022-08-18T16:48:08.488Z,100532.84
2022-08-18T16:50:44.938Z,100538.84
2022-08-18T16:53:16.446Z,100537.13
2022-08-18T16:56:05.987Z,100522.63
2022-08-18T16:59:05.458Z,100505.25
2022-08-18T17:04:53.545Z,100485.94
2022-08-18T17:07:24.492Z,100480.25
2022-08-18T17:09:53.056Z,100447.91
2022-08-18T17:12:27.382Z,100508.22
2022-08-18T17:14:56.582Z,100519.06
2022-08-18T17:17:27.388Z,100514.44
2022-08-18T17:19:59.431Z,100444.09
2022-08-18T17:22:36.481Z,100520.78
2022-08-18T17:25:08.515Z,100518.47
2022-08-18T17:27:45.955Z,100509.63
2022-08-18T17:30:28.252Z,100463.44
2022-08-18T17:33:03.015Z,100524.97
2022-08-18T17:35:43.800Z,100492.78
2022-08-18T17:39:02.119Z,100502.00
2022-08-18T17:41:54.271Z,100455.38
2022-08-18T17:44:31.311Z,100517.56
2022-08-18T17:47:03.373Z,100454.88
2022-08-18T17:50:27.175Z,100450.91
2022-08-18T17:52:52.639Z,100509.41
2022-08-18T17:55:34.935Z,100536.19
2022-08-18T17:58:15.469Z,100456.63
2022-08-18T18:00:52.789Z,100450.38
2022-08-18T18:03:27.201Z,100461.94
2022-08-18T18:06:09.791Z,100463.47
2022-08-18T18:09:00.531Z,100527.88
2022-08-18T18:11:41.266Z,100521.53
2022-08-18T18:14:26.242Z,100523.19
2022-08-18T18:17:07.104Z,100525.53
2022-08-18T18:19:34.418Z,100524.53
2022-08-18T18:22:19.808Z,100524.06
2022-08-18T18:24:57.854Z,100526.00
2022-08-18T18:27:36.928Z,100528.81
2022-08-18T18:30:08.006Z,100530.41
2022-08-18T18:32:48.974Z,100534.41
2022-08-18T18:35:33.953Z,100534.72
2022-08-18T18:38:05.005Z,100539.81
2022-08-18T18:40:36.321Z,100533.97
2022-08-18T18:43:35.730Z,100544.75
2022-08-18T18:46:23.300Z,100538.34
2022-08-18T18:49:01.327Z,100536.66
2022-08-18T18:51:36.034Z,100533.41
2022-08-18T18:54:49.784Z,100537.44
2022-08-18T18:57:39.973Z,100547.53
2022-08-18T19:00:20.688Z,100546.25
2022-08-18T19:02:47.333Z,100554.84
2022-08-18T19:05:35.259Z,100542.25
2022-08-18T19:08:19.960Z,100547.63
2022-08-18T19:11:02.410Z,100544.38
2022-08-18T19:13:36.477Z,100545.94
2022-08-18T19:16:23.655Z,100549.69
2022-08-18T19:19:38.306Z,100559.19
2022-08-18T19:22:04.396Z,100557.03
2022-08-18T19:24:40.523Z,100555.88
2022-08-18T19:27:17.332Z,100555.66
2022-08-18T19:29:52.188Z,100557.41
2022-08-18T19:32:24.169Z,100552.84
2022-08-18T19:34:55.605Z,100552.22
2022-08-18T19:37:44.714Z,100551.06
2022-08-18T19:40:21.442Z,100551.03
2022-08-18T19:42:52.965Z,100556.38
2022-08-18T19:45:31.651Z,100553.97
2022-08-18T19:48:28.412Z,100561.44
2022-08-18T19:51:05.458Z,100555.81
2022-08-18T19:53:34.835Z,100557.31
2022-08-18T19:56:49.346Z,100559.88
2022-08-18T19:59:18.326Z,100555.69
2022-08-18T20:01:58.061Z,100560.94
2022-08-18T20:05:00.222Z,100553.16
2022-08-18T20:07:55.869Z,100551.44
2022-08-18T20:10:40.311Z,100550.38
2022-08-18T20:13:26.108Z,100550.50
2022-08-18T20:15:59.018Z,100551.88
2022-08-18T20:18:35.326Z,100557.19
2022-08-18T20:21:14.333Z,100548.28
2022-08-18T20:23:59.248Z,100563.28
2022-08-18T20:26:38.197Z,100560.38
2022-08-18T20:29:13.115Z,100565.78
2022-08-18T20:31:51.260Z,100557.53
2022-08-18T20:34:22.890Z,100564.06
2022-08-18T20:36:51.731Z,100567.78
2022-08-18T20:39:45.224Z,100565.41
2022-08-18T20:42:21.059Z,100564.19
2022-08-18T20:44:50.720Z,100558.75
2022-08-18T20:47:29.116Z,100558.44
2022-08-18T20:50:16.951Z,100560.38
2022-08-18T20:52:46.553Z,100558.75
2022-08-18T20:55:26.496Z,100555.50
2022-08-18T20:58:05.311Z,100555.50
2022-08-18T21:00:37.328Z,100551.72
2022-08-18T21:03:11.783Z,100557.69
2022-08-18T21:05:41.206Z,100559.00
2022-08-18T21:08:14.160Z,100564.66
2022-08-18T21:11:03.013Z,100566.25
2022-08-18T21:13:41.616Z,100556.81
2022-08-18T21:16:10.308Z,100554.41
2022-08-18T21:18:37.256Z,100565.41
2022-08-18T21:21:11.314Z,100553.38
2022-08-18T21:23:41.301Z,100563.72
2022-08-18T21:26:16.278Z,100570.81
2022-08-18T21:28:48.809Z,100574.22
2022-08-18T21:31:43.875Z,100587.84
2022-08-18T21:34:35.785Z,100589.63
2022-08-18T21:37:08.361Z,100604.72
2022-08-18T21:39:45.876Z,100599.94
2022-08-18T21:42:18.062Z,100592.94
2022-08-18T21:44:47.058Z,100599.88
2022-08-18T21:47:23.776Z,100591.53
2022-08-18T21:50:09.618Z,100597.84
2022-08-18T21:52:50.407Z,100586.34
2022-08-18T21:55:40.075Z,100592.69
2022-08-18T21:58:18.540Z,100587.88
2022-08-18T22:01:03.808Z,100594.63
2022-08-18T22:03:31.393Z,100595.31
2022-08-18T22:06:03.456Z,100598.50
2022-08-18T22:08:33.735Z,100593.88
2022-08-18T22:12:01.138Z,100597.72
2022-08-18T22:14:54.486Z,100604.44
2022-08-18T22:17:41.347Z,100605.69
2022-08-18T22:20:35.781Z,100608.19
2022-08-18T22:23:38.034Z,100590.28
2022-08-18T22:26:17.293Z,100595.34
2022-08-18T22:29:20.842Z,100591.00
2022-08-18T22:31:50.347Z,100590.16
2022-08-18T22:34:27.873Z,100596.56
2022-08-18T22:36:59.334Z,100604.09
2022-08-18T22:39:32.136Z,100603.31
2022-08-18T22:41:58.965Z,100603.81
2022-08-18T22:44:26.721Z,100603.53
2022-08-18T22:46:53.624Z,100589.59
2022-08-18T22:49:21.026Z,100610.38
2022-08-18T22:51:49.275Z,100606.91
2022-08-18T22:54:16.913Z,100615.56
2022-08-18T22:56:56.416Z,100608.25
2022-08-18T22:59:26.799Z,100616.19
2022-08-18T23:01:54.561Z,100612.63
2022-08-18T23:04:25.341Z,100611.06
2022-08-18T23:06:54.032Z,100606.00
2022-08-18T23:09:30.089Z,100611.72
2022-08-18T23:12:01.115Z,100615.91
2022-08-18T23:14:28.886Z,100609.00
2022-08-18T23:16:55.401Z,100616.16
2022-08-18T23:19:22.022Z,100604.94
2022-08-18T23:21:49.383Z,100604.91
2022-08-18T23:24:17.658Z,100609.75
2022-08-18T23:26:45.486Z,100607.56
2022-08-18T23:29:13.974Z,100612.78
2022-08-18T23:31:43.565Z,100610.75
2022-08-18T23:34:13.134Z,100613.59
2022-08-18T23:36:45.097Z,100612.84
2022-08-18T23:39:12.914Z,100621.56
2022-08-18T23:41:39.428Z,100619.41
2022-08-18T23:44:06.612Z,100617.78
2022-08-18T23:46:34.262Z,100618.78
2022-08-18T23:49:03.978Z,100619.78
2022-08-18T23:51:44.189Z,100626.88
2022-08-18T23:54:15.178Z,100629.56
2022-08-18T23:56:41.737Z,100625.31
2022-08-18T23:59:08.510Z,100628.81
